sensor_id;sensor_type;location;lat;lon;timestamp;pressure;altitude;pressure_sealevel;temperature;humidity
63731;BME280;49747;51.334;6.830;2023-02-15T00:01:41;102388.00;;;11.22;59.34
63731;BME280;49747;51.334;6.830;2023-02-15T00:04:08;102396.69;;;11.26;59.47
63731;BME280;49747;51.334;6.830;2023-02-15T00:06:36;102387.06;;;11.23;58.83
63731;BME280;49747;51.334;6.830;2023-02-15T00:09:03;102394.94;;;11.25;59.42
63731;BME280;49747;51.334;6.830;2023-02-15T00:11:30;102388.78;;;11.24;58.99
63731;BME280;49747;51.334;6.830;2023-02-15T00:14:09;102393.94;;;11.27;58.91
63731;BME280;49747;51.334;6.830;2023-02-15T00:16:38;102384.31;;;11.25;58.97
63731;BME280;49747;51.334;6.830;2023-02-15T00:19:05;102384.16;;;11.28;58.70
63731;BME280;49747;51.334;6.830;2023-02-15T00:21:33;102381.50;;;11.28;59.03
63731;BME280;49747;51.334;6.830;2023-02-15T00:24:01;102374.38;;;11.28;58.66
63731;BME280;49747;51.334;6.830;2023-02-15T00:26:27;102377.22;;;11.25;58.89
63731;BME280;49747;51.334;6.830;2023-02-15T00:28:55;102378.13;;;11.24;58.84
63731;BME280;49747;51.334;6.830;2023-02-15T00:31:22;102378.78;;;11.29;58.86
63731;BME280;49747;51.334;6.830;2023-02-15T00:33:49;102379.69;;;11.28;58.89
63731;BME280;49747;51.334;6.830;2023-02-15T00:36:15;102374.69;;;11.22;58.43
63731;BME280;49747;51.334;6.830;2023-02-15T00:38:42;102373.53;;;11.28;58.36
63731;BME280;49747;51.334;6.830;2023-02-15T00:41:09;102365.16;;;11.18;58.58
63731;BME280;49747;51.334;6.830;2023-02-15T00:43:37;102365.16;;;11.18;58.56
63731;BME280;49747;51.334;6.830;2023-02-15T00:46:04;102377.28;;;11.24;58.59
63731;BME280;49747;51.334;6.830;2023-02-15T00:48:31;102374.59;;;11.24;58.53
63731;BME280;49747;51.334;6.830;2023-02-15T00:50:59;102376.31;;;11.25;58.18
63731;BME280;49747;51.334;6.830;2023-02-15T00:53:26;102365.00;;;11.21;58.09
63731;BME280;49747;51.334;6.830;2023-02-15T00:55:53;102372.91;;;11.23;58.13
63731;BME280;49747;51.334;6.830;2023-02-15T00:58:21;102368.56;;;11.20;58.19
63731;BME280;49747;51.334;6.830;2023-02-15T01:00:48;102367.66;;;11.21;58.02
63731;BME280;49747;51.334;6.830;2023-02-15T01:03:17;102365.91;;;11.20;57.83
63731;BME280;49747;51.334;6.830;2023-02-15T01:05:43;102371.22;;;11.20;58.08
63731;BME280;49747;51.334;6.830;2023-02-15T01:08:10;102372.19;;;11.19;58.10
63731;BME280;49747;51.334;6.830;2023-02-15T01:10:37;102374.22;;;11.14;58.25
63731;BME280;49747;51.334;6.830;2023-02-15T01:13:04;102368.88;;;11.14;58.13
63731;BME280;49747;51.334;6.830;2023-02-15T01:15:35;102368.19;;;11.10;58.47
63731;BME280;49747;51.334;6.830;2023-02-15T01:18:03;102358.75;;;11.03;58.31
63731;BME280;49747;51.334;6.830;2023-02-15T01:20:34;102363.38;;;11.00;58.41
63731;BME280;49747;51.334;6.830;2023-02-15T01:23:01;102364.22;;;11.00;58.63
63731;BME280;49747;51.334;6.830;2023-02-15T01:25:27;102364.44;;;10.96;58.39
63731;BME280;49747;51.334;6.830;2023-02-15T01:27:54;102360.94;;;10.95;58.29
63731;BME280;49747;51.334;6.830;2023-02-15T01:30:20;102361.88;;;10.94;58.40
63731;BME280;49747;51.334;6.830;2023-02-15T01:32:47;102345.34;;;10.88;58.54
63731;BME280;49747;51.334;6.830;2023-02-15T01:35:14;102354.88;;;10.92;58.36
63731;BME280;49747;51.334;6.830;2023-02-15T01:37:40;102349.66;;;10.90;58.67
63731;BME280;49747;51.334;6.830;2023-02-15T01:40:09;102345.66;;;10.81;58.68
63731;BME280;49747;51.334;6.830;2023-02-15T01:42:38;102354.16;;;10.88;58.29
63731;BME280;49747;51.334;6.830;2023-02-15T01:45:21;102353.19;;;10.91;58.59
63731;BME280;49747;51.334;6.830;2023-02-15T01:47:54;102346.16;;;10.90;58.91
63731;BME280;49747;51.334;6.830;2023-02-15T01:50:33;102338.22;;;10.88;58.40
63731;BME280;49747;51.334;6.830;2023-02-15T01:56:00;102340.50;;;10.96;58.14
63731;BME280;49747;51.334;6.830;2023-02-15T01:58:29;102339.50;;;10.98;58.41
63731;BME280;49747;51.334;6.830;2023-02-15T02:00:59;102337.81;;;10.97;58.38
63731;BME280;49747;51.334;6.830;2023-02-15T02:03:56;102336.78;;;11.00;57.94
63731;BME280;49747;51.334;6.830;2023-02-15T02:06:25;102332.25;;;11.02;58.01
63731;BME280;49747;51.334;6.830;2023-02-15T02:08:53;102332.31;;;11.00;57.77
63731;BME280;49747;51.334;6.830;2023-02-15T02:11:21;102320.09;;;10.96;57.93
63731;BME280;49747;51.334;6.830;2023-02-15T02:13:48;102326.13;;;11.00;57.78
63731;BME280;49747;51.334;6.830;2023-02-15T02:16:40;102317.22;;;11.01;57.46
63731;BME280;49747;51.334;6.830;2023-02-15T02:19:42;102316.34;;;11.00;57.43
63731;BME280;49747;51.334;6.830;2023-02-15T02:27:39;102309.22;;;11.01;57.43
63731;BME280;49747;51.334;6.830;2023-02-15T02:35:26;102295.94;;;11.01;57.79
63731;BME280;49747;51.334;6.830;2023-02-15T02:38:10;102301.25;;;11.01;57.50
63731;BME280;49747;51.334;6.830;2023-02-15T02:41:16;102292.66;;;10.96;57.32
63731;BME280;49747;51.334;6.830;2023-02-15T02:43:53;102284.81;;;10.93;57.37
63731;BME280;49747;51.334;6.830;2023-02-15T02:46:29;102286.84;;;10.88;57.34
63731;BME280;49747;51.334;6.830;2023-02-15T02:48:56;102282.38;;;10.88;58.13
63731;BME280;49747;51.334;6.830;2023-02-15T02:51:23;102287.69;;;10.88;58.06
63731;BME280;49747;51.334;6.830;2023-02-15T02:53:53;102271.25;;;10.80;57.75
63731;BME280;49747;51.334;6.830;2023-02-15T02:56:29;102276.16;;;10.89;57.68
63731;BME280;49747;51.334;6.830;2023-02-15T02:59:05;102267.38;;;10.87;58.12
63731;BME280;49747;51.334;6.830;2023-02-15T03:01:46;102263.88;;;10.87;57.74
63731;BME280;49747;51.334;6.830;2023-02-15T03:04:18;102261.06;;;10.90;57.58
63731;BME280;49747;51.334;6.830;2023-02-15T03:07:00;102260.25;;;10.88;57.94
63731;BME280;49747;51.334;6.830;2023-02-15T03:09:31;102264.72;;;10.87;58.05
63731;BME280;49747;51.334;6.830;2023-02-15T03:12:15;102260.34;;;10.86;58.09
63731;BME280;49747;51.334;6.830;2023-02-15T03:14:48;102257.69;;;10.86;58.29
63731;BME280;49747;51.334;6.830;2023-02-15T03:17:20;102255.88;;;10.87;58.45
63731;BME280;49747;51.334;6.830;2023-02-15T03:19:50;102259.41;;;10.87;57.92
63731;BME280;49747;51.334;6.830;2023-02-15T03:22:25;102248.78;;;10.87;58.06
63731;BME280;49747;51.334;6.830;2023-02-15T03:25:09;102261.19;;;10.87;58.01
63731;BME280;49747;51.334;6.830;2023-02-15T03:27:43;102256.75;;;10.87;58.00
63731;BME280;49747;51.334;6.830;2023-02-15T03:30:13;102258.53;;;10.87;58.02
63731;BME280;49747;51.334;6.830;2023-02-15T03:32:43;102254.88;;;10.89;57.86
63731;BME280;49747;51.334;6.830;2023-02-15T03:35:11;102260.25;;;10.88;57.69
63731;BME280;49747;51.334;6.830;2023-02-15T03:37:48;102254.00;;;10.89;57.54
63731;BME280;49747;51.334;6.830;2023-02-15T03:40:28;102256.66;;;10.89;57.36
63731;BME280;49747;51.334;6.830;2023-02-15T03:43:21;102260.13;;;10.91;57.40
63731;BME280;49747;51.334;6.830;2023-02-15T03:45:54;102246.25;;;10.84;57.41
63731;BME280;49747;51.334;6.830;2023-02-15T03:48:26;102258.41;;;10.90;57.47
63731;BME280;49747;51.334;6.830;2023-02-15T03:50:57;102252.50;;;10.83;57.46
63731;BME280;49747;51.334;6.830;2023-02-15T03:53:45;102257.53;;;10.89;57.25
63731;BME280;49747;51.334;6.830;2023-02-15T03:56:12;102248.78;;;10.87;57.40
63731;BME280;49747;51.334;6.830;2023-02-15T03:58:39;102253.00;;;10.91;56.93
63731;BME280;49747;51.334;6.830;2023-02-15T04:01:37;102251.34;;;10.89;57.46
63731;BME280;49747;51.334;6.830;2023-02-15T04:04:31;102251.44;;;10.87;56.96
63731;BME280;49747;51.334;6.830;2023-02-15T04:06:58;102254.09;;;10.87;57.36
63731;BME280;49747;51.334;6.830;2023-02-15T04:09:25;102248.06;;;10.83;57.22
63731;BME280;49747;51.334;6.830;2023-02-15T04:12:10;102243.53;;;10.85;56.94
63731;BME280;49747;51.334;6.830;2023-02-15T04:14:38;102247.06;;;10.86;57.19
63731;BME280;49747;51.334;6.830;2023-02-15T04:17:23;102254.22;;;10.84;57.35
63731;BME280;49747;51.334;6.830;2023-02-15T04:19:49;102248.06;;;10.83;57.43
63731;BME280;49747;51.334;6.830;2023-02-15T04:22:35;102237.75;;;10.77;57.40
63731;BME280;49747;51.334;6.830;2023-02-15T04:25:20;102247.19;;;10.83;57.16
63731;BME280;49747;51.334;6.830;2023-02-15T04:27:50;102246.41;;;10.81;56.86
63731;BME280;49747;51.334;6.830;2023-02-15T04:30:19;102246.56;;;10.78;57.36
63731;BME280;49747;51.334;6.830;2023-02-15T04:32:46;102239.50;;;10.77;56.85
63731;BME280;49747;51.334;6.830;2023-02-15T04:35:14;102240.53;;;10.74;57.21
63731;BME280;49747;51.334;6.830;2023-02-15T04:37:41;102236.22;;;10.72;57.47
63731;BME280;49747;51.334;6.830;2023-02-15T04:40:11;102251.94;;;10.76;57.89
63731;BME280;49747;51.334;6.830;2023-02-15T04:42:38;102240.53;;;10.74;57.51
63731;BME280;49747;51.334;6.830;2023-02-15T04:45:05;102242.25;;;10.75;57.41
63731;BME280;49747;51.334;6.830;2023-02-15T04:47:32;102243.91;;;10.78;57.66
63731;BME280;49747;51.334;6.830;2023-02-15T04:49:58;102246.63;;;10.76;57.46
63731;BME280;49747;51.334;6.830;2023-02-15T04:52:25;102236.84;;;10.77;57.55
63731;BME280;49747;51.334;6.830;2023-02-15T04:54:52;102239.50;;;10.77;57.12
63731;BME280;49747;51.334;6.830;2023-02-15T04:57:18;102241.31;;;10.76;57.25
63731;BME280;49747;51.334;6.830;2023-02-15T04:59:45;102233.50;;;10.73;56.80
63731;BME280;49747;51.334;6.830;2023-02-15T05:02:11;102237.78;;;10.76;57.05
63731;BME280;49747;51.334;6.830;2023-02-15T05:04:38;102215.47;;;10.61;56.84
63731;BME280;49747;51.334;6.830;2023-02-15T05:07:05;102214.47;;;10.64;57.00
63731;BME280;49747;51.334;6.830;2023-02-15T05:09:31;102229.97;;;10.73;56.81
63731;BME280;49747;51.334;6.830;2023-02-15T05:11:58;102229.97;;;10.73;56.84
63731;BME280;49747;51.334;6.830;2023-02-15T05:14:24;102228.38;;;10.69;57.02
63731;BME280;49747;51.334;6.830;2023-02-15T05:16:51;102224.88;;;10.68;56.67
63731;BME280;49747;51.334;6.830;2023-02-15T05:19:18;102219.56;;;10.68;56.49
63731;BME280;49747;51.334;6.830;2023-02-15T05:21:45;102211.59;;;10.68;56.96
63731;BME280;49747;51.334;6.830;2023-02-15T05:24:11;102206.41;;;10.65;56.80
63731;BME280;49747;51.334;6.830;2023-02-15T05:26:56;102200.63;;;10.57;57.21
63731;BME280;49747;51.334;6.830;2023-02-15T05:29:42;102210.00;;;10.64;56.92
63731;BME280;49747;51.334;6.830;2023-02-15T05:32:09;102204.44;;;9.55;59.41
63731;BME280;49747;51.334;6.830;2023-02-15T05:34:37;102211.34;;;9.19;60.60
63731;BME280;49747;51.334;6.830;2023-02-15T05:37:03;102207.84;;;8.76;62.20
63731;BME280;49747;51.334;6.830;2023-02-15T05:39:32;102203.66;;;8.48;63.30
63731;BME280;49747;51.334;6.830;2023-02-15T05:42:01;102211.22;;;8.35;64.23
63731;BME280;49747;51.334;6.830;2023-02-15T05:44:28;102206.13;;;8.07;65.39
63731;BME280;49747;51.334;6.830;2023-02-15T05:46:54;102201.38;;;7.69;66.26
63731;BME280;49747;51.334;6.830;2023-02-15T05:49:21;102208.19;;;7.76;67.00
63731;BME280;49747;51.334;6.830;2023-02-15T05:51:48;102206.75;;;7.67;67.34
63731;BME280;49747;51.334;6.830;2023-02-15T05:54:14;102200.00;;;7.33;68.32
63731;BME280;49747;51.334;6.830;2023-02-15T05:56:41;102186.94;;;7.04;69.45
63731;BME280;49747;51.334;6.830;2023-02-15T05:59:08;102195.97;;;6.98;69.80
63731;BME280;49747;51.334;6.830;2023-02-15T06:01:35;102199.53;;;6.69;71.26
63731;BME280;49747;51.334;6.830;2023-02-15T06:04:01;102205.91;;;6.63;71.54
63731;BME280;49747;51.334;6.830;2023-02-15T06:06:28;102211.44;;;6.56;71.93
63731;BME280;49747;51.334;6.830;2023-02-15T06:08:55;102208.22;;;6.73;71.92
63731;BME280;49747;51.334;6.830;2023-02-15T06:11:21;102209.78;;;6.80;71.29
63731;BME280;49747;51.334;6.830;2023-02-15T06:13:48;102214.88;;;6.58;72.17
63731;BME280;49747;51.334;6.830;2023-02-15T06:16:14;102214.59;;;6.39;72.73
63731;BME280;49747;51.334;6.830;2023-02-15T06:18:42;102219.19;;;6.60;72.49
63731;BME280;49747;51.334;6.830;2023-02-15T06:21:09;102208.22;;;6.73;71.63
63731;BME280;49747;51.334;6.830;2023-02-15T06:23:36;102193.06;;;6.79;71.13
63731;BME280;49747;51.334;6.830;2023-02-15T06:26:02;102213.13;;;6.58;72.05
63731;BME280;49747;51.334;6.830;2023-02-15T06:28:29;102216.38;;;6.66;72.03
63731;BME280;49747;51.334;6.830;2023-02-15T06:30:56;102215.00;;;6.53;72.53
63731;BME280;49747;51.334;6.830;2023-02-15T06:33:23;102209.50;;;6.61;71.71
63731;BME280;49747;51.334;6.830;2023-02-15T06:35:51;102221.66;;;6.66;71.84
63731;BME280;49747;51.334;6.830;2023-02-15T06:38:18;102223.16;;;6.74;71.77
63731;BME280;49747;51.334;6.830;2023-02-15T06:40:45;102223.72;;;6.57;71.93
63731;BME280;49747;51.334;6.830;2023-02-15T06:43:12;102224.16;;;6.71;71.67
63731;BME280;49747;51.334;6.830;2023-02-15T06:45:38;102228.91;;;6.60;71.76
63731;BME280;49747;51.334;6.830;2023-02-15T06:48:05;102231.94;;;6.74;72.12
63731;BME280;49747;51.334;6.830;2023-02-15T06:50:34;102232.00;;;6.73;71.31
63731;BME280;49747;51.334;6.830;2023-02-15T06:53:01;102213.38;;;6.77;70.95
63731;BME280;49747;51.334;6.830;2023-02-15T06:55:28;102225.22;;;6.92;70.69
63731;BME280;49747;51.334;6.830;2023-02-15T06:57:55;102223.38;;;6.94;70.43
63731;BME280;49747;51.334;6.830;2023-02-15T07:00:22;102221.19;;;6.80;70.80
63731;BME280;49747;51.334;6.830;2023-02-15T07:02:59;102227.09;;;6.88;70.63
63731;BME280;49747;51.334;6.830;2023-02-15T07:05:26;102223.09;;;6.49;71.80
63731;BME280;49747;51.334;6.830;2023-02-15T07:07:58;102220.94;;;6.88;70.73
63731;BME280;49747;51.334;6.830;2023-02-15T07:10:25;102222.91;;;6.81;70.94
63731;BME280;49747;51.334;6.830;2023-02-15T07:12:53;102211.31;;;6.87;70.45
63731;BME280;49747;51.334;6.830;2023-02-15T07:15:21;102220.59;;;6.99;69.67
63731;BME280;49747;51.334;6.830;2023-02-15T07:17:48;102217.19;;;6.95;69.92
63731;BME280;49747;51.334;6.830;2023-02-15T07:20:20;102216.88;;;7.29;68.97
63731;BME280;49747;51.334;6.830;2023-02-15T07:22:48;102221.72;;;7.43;67.86
63731;BME280;49747;51.334;6.830;2023-02-15T07:25:16;102219.44;;;7.32;68.20
63731;BME280;49747;51.334;6.830;2023-02-15T07:27:43;102208.94;;;7.04;68.71
63731;BME280;49747;51.334;6.830;2023-02-15T07:30:13;102206.03;;;7.12;69.06
63731;BME280;49747;51.334;6.830;2023-02-15T07:32:41;102200.13;;;7.30;68.42
63731;BME280;49747;51.334;6.830;2023-02-15T07:35:30;102187.97;;;7.00;68.33
63731;BME280;49747;51.334;6.830;2023-02-15T07:37:58;102188.06;;;6.97;68.38
63731;BME280;49747;51.334;6.830;2023-02-15T07:40:25;102182.81;;;7.47;67.62
63731;BME280;49747;51.334;6.830;2023-02-15T07:42:51;102179.72;;;7.59;66.63
63731;BME280;49747;51.334;6.830;2023-02-15T07:45:22;102176.56;;;8.42;64.61
63731;BME280;49747;51.334;6.830;2023-02-15T07:47:49;102166.94;;;9.24;61.25
63731;BME280;49747;51.334;6.830;2023-02-15T07:50:16;102177.91;;;9.55;59.61
63731;BME280;49747;51.334;6.830;2023-02-15T07:52:43;102166.97;;;10.75;55.84
63731;BME280;49747;51.334;6.830;2023-02-15T07:55:09;102166.34;;;9.96;57.36
63731;BME280;49747;51.334;6.830;2023-02-15T07:57:43;102147.41;;;10.58;55.40
63731;BME280;49747;51.334;6.830;2023-02-15T08:00:12;102159.25;;;10.34;55.30
63731;BME280;49747;51.334;6.830;2023-02-15T08:02:39;102160.06;;;11.23;54.00
63731;BME280;49747;51.334;6.830;2023-02-15T08:05:07;102154.16;;;11.18;52.92
63731;BME280;49747;51.334;6.830;2023-02-15T08:07:34;102147.78;;;9.56;57.03
63731;BME280;49747;51.334;6.830;2023-02-15T08:10:00;102164.22;;;9.65;57.52
63731;BME280;49747;51.334;6.830;2023-02-15T08:12:27;102159.41;;;8.94;60.04
63731;BME280;49747;51.334;6.830;2023-02-15T08:14:54;102161.81;;;8.78;60.00
63731;BME280;49747;51.334;6.830;2023-02-15T08:17:20;102156.19;;;9.47;58.85
63731;BME280;49747;51.334;6.830;2023-02-15T08:19:47;102150.94;;;10.21;56.00
63731;BME280;49747;51.334;6.830;2023-02-15T08:22:14;102155.94;;;10.29;56.25
63731;BME280;49747;51.334;6.830;2023-02-15T08:24:40;102145.13;;;11.20;53.57
63731;BME280;49747;51.334;6.830;2023-02-15T08:27:09;102142.28;;;11.74;51.74
63731;BME280;49747;51.334;6.830;2023-02-15T08:29:37;102145.00;;;12.67;48.71
63731;BME280;49747;51.334;6.830;2023-02-15T08:32:06;102143.19;;;12.98;47.84
63731;BME280;49747;51.334;6.830;2023-02-15T08:34:37;102133.63;;;13.24;46.93
63731;BME280;49747;51.334;6.830;2023-02-15T08:37:04;102122.34;;;13.19;47.14
63731;BME280;49747;51.334;6.830;2023-02-15T08:39:32;102127.56;;;14.20;45.33
63731;BME280;49747;51.334;6.830;2023-02-15T08:41:59;102125.31;;;14.27;44.63
63731;BME280;49747;51.334;6.830;2023-02-15T08:44:26;102118.47;;;15.15;42.88
63731;BME280;49747;51.334;6.830;2023-02-15T08:46:52;102119.69;;;15.37;42.12
63731;BME280;49747;51.334;6.830;2023-02-15T08:49:20;102119.97;;;14.94;42.51
63731;BME280;49747;51.334;6.830;2023-02-15T08:51:48;102123.81;;;15.79;41.57
63731;BME280;49747;51.334;6.830;2023-02-15T08:54:19;102114.47;;;16.45;40.29
63731;BME280;49747;51.334;6.830;2023-02-15T08:56:47;102111.22;;;16.53;39.65
63731;BME280;49747;51.334;6.830;2023-02-15T08:59:19;102112.53;;;16.83;39.05
63731;BME280;49747;51.334;6.830;2023-02-15T09:01:47;102107.84;;;16.97;38.70
63731;BME280;49747;51.334;6.830;2023-02-15T09:04:15;102103.88;;;17.48;37.47
63731;BME280;49747;51.334;6.830;2023-02-15T09:06:43;102104.75;;;18.14;36.41
63731;BME280;49747;51.334;6.830;2023-02-15T09:09:14;102100.56;;;18.33;36.08
63731;BME280;49747;51.334;6.830;2023-02-15T09:11:43;102101.25;;;18.99;34.75
63731;BME280;49747;51.334;6.830;2023-02-15T09:14:13;102100.84;;;19.34;34.88
63731;BME280;49747;51.334;6.830;2023-02-15T09:16:42;102108.22;;;19.32;34.57
63731;BME280;49747;51.334;6.830;2023-02-15T09:19:11;102096.59;;;20.12;34.59
63731;BME280;49747;51.334;6.830;2023-02-15T09:21:38;102098.19;;;20.54;33.55
63731;BME280;49747;51.334;6.830;2023-02-15T09:24:09;102094.22;;;19.69;33.40
63731;BME280;49747;51.334;6.830;2023-02-15T09:26:40;102108.19;;;19.84;33.17
63731;BME280;49747;51.334;6.830;2023-02-15T09:29:08;102107.59;;;19.50;33.87
63731;BME280;49747;51.334;6.830;2023-02-15T09:31:40;102097.50;;;19.82;33.43
63731;BME280;49747;51.334;6.830;2023-02-15T09:34:07;102105.53;;;20.03;33.07
63731;BME280;49747;51.334;6.830;2023-02-15T09:36:36;102117.28;;;18.48;34.12
63731;BME280;49747;51.334;6.830;2023-02-15T09:39:11;102100.03;;;19.64;33.56
63731;BME280;49747;51.334;6.830;2023-02-15T09:50:25;102121.34;;;18.31;35.02
63731;BME280;49747;51.334;6.830;2023-02-15T09:53:00;102122.69;;;16.90;36.86
63731;BME280;49747;51.334;6.830;2023-02-15T10:15:07;102121.84;;;14.66;42.12
63731;BME280;49747;51.334;6.830;2023-02-15T10:20:30;102121.91;;;14.52;43.03
63731;BME280;49747;51.334;6.830;2023-02-15T10:23:10;102111.09;;;14.93;42.20
63731;BME280;49747;51.334;6.830;2023-02-15T10:28:19;102105.28;;;14.47;43.30
63731;BME280;49747;51.334;6.830;2023-02-15T10:30:51;102113.50;;;14.71;43.22
63731;BME280;49747;51.334;6.830;2023-02-15T10:33:41;102115.34;;;14.16;44.17
63731;BME280;49747;51.334;6.830;2023-02-15T10:39:14;102114.53;;;13.87;44.66
63731;BME280;49747;51.334;6.830;2023-02-15T10:42:11;102114.31;;;14.32;44.50
63731;BME280;49747;51.334;6.830;2023-02-15T10:45:06;102113.50;;;13.75;44.84
63731;BME280;49747;51.334;6.830;2023-02-15T10:48:10;102102.34;;;14.51;44.04
63731;BME280;49747;51.334;6.830;2023-02-15T10:50:58;102098.88;;;13.95;44.67
63731;BME280;49747;51.334;6.830;2023-02-15T10:56:09;102093.41;;;13.55;45.88
63731;BME280;49747;51.334;6.830;2023-02-15T11:01:34;102092.06;;;13.63;45.32
63731;BME280;49747;51.334;6.830;2023-02-15T11:06:50;102087.63;;;13.49;46.62
63731;BME280;49747;51.334;6.830;2023-02-15T11:09:21;102094.06;;;12.72;46.61
63731;BME280;49747;51.334;6.830;2023-02-15T11:11:51;102098.25;;;12.62;47.15
63731;BME280;49747;51.334;6.830;2023-02-15T11:14:35;102092.41;;;12.99;47.35
63731;BME280;49747;51.334;6.830;2023-02-15T11:17:11;102093.53;;;12.51;48.15
63731;BME280;49747;51.334;6.830;2023-02-15T11:19:43;102098.31;;;12.60;47.97
63731;BME280;49747;51.334;6.830;2023-02-15T11:22:15;102090.06;;;12.65;47.25
63731;BME280;49747;51.334;6.830;2023-02-15T11:24:44;102079.28;;;12.36;48.34
63731;BME280;49747;51.334;6.830;2023-02-15T11:32:27;102093.88;;;13.19;48.16
63731;BME280;49747;51.334;6.830;2023-02-15T11:35:03;102091.50;;;12.70;47.84
63731;BME280;49747;51.334;6.830;2023-02-15T11:38:04;102080.47;;;13.35;47.13
63731;BME280;49747;51.334;6.830;2023-02-15T11:43:04;102080.53;;;13.05;47.39
63731;BME280;49747;51.334;6.830;2023-02-15T11:45:45;102076.59;;;13.11;46.56
63731;BME280;49747;51.334;6.830;2023-02-15T11:48:14;102067.44;;;13.00;46.88
63731;BME280;49747;51.334;6.830;2023-02-15T11:50:42;102061.34;;;12.98;47.43
63731;BME280;49747;51.334;6.830;2023-02-15T11:53:15;102063.25;;;12.52;47.99
63731;BME280;49747;51.334;6.830;2023-02-15T11:55:47;102050.66;;;12.40;48.09
63731;BME280;49747;51.334;6.830;2023-02-15T11:58:25;102047.31;;;12.66;48.97
63731;BME280;49747;51.334;6.830;2023-02-15T12:03:55;102044.41;;;12.85;47.45
63731;BME280;49747;51.334;6.830;2023-02-15T12:06:26;102032.03;;;12.98;47.32
63731;BME280;49747;51.334;6.830;2023-02-15T12:08:59;102019.69;;;12.53;48.17
63731;BME280;49747;51.334;6.830;2023-02-15T12:11:39;102038.47;;;12.80;48.33
63731;BME280;49747;51.334;6.830;2023-02-15T12:14:08;102027.25;;;13.03;48.63
63731;BME280;49747;51.334;6.830;2023-02-15T12:16:53;102014.34;;;12.67;47.76
63731;BME280;49747;51.334;6.830;2023-02-15T12:19:29;102012.88;;;12.77;47.81
63731;BME280;49747;51.334;6.830;2023-02-15T12:21:59;102015.31;;;12.66;48.68
63731;BME280;49747;51.334;6.830;2023-02-15T12:24:30;102013.03;;;12.74;48.52
63731;BME280;49747;51.334;6.830;2023-02-15T12:27:04;102007.22;;;12.96;48.31
63731;BME280;49747;51.334;6.830;2023-02-15T12:29:40;102008.66;;;13.16;47.97
63731;BME280;49747;51.334;6.830;2023-02-15T12:35:14;102001.06;;;13.39;47.56
63731;BME280;49747;51.334;6.830;2023-02-15T12:40:39;101996.09;;;13.74;47.92
63731;BME280;49747;51.334;6.830;2023-02-15T12:43:25;101993.31;;;13.75;46.79
63731;BME280;49747;51.334;6.830;2023-02-15T12:45:52;101995.19;;;13.88;46.35
63731;BME280;49747;51.334;6.830;2023-02-15T12:48:20;101987.66;;;14.07;46.71
63731;BME280;49747;51.334;6.830;2023-02-15T12:50:50;101984.78;;;14.10;45.97
63731;BME280;49747;51.334;6.830;2023-02-15T12:53:41;101981.06;;;14.13;45.83
63731;BME280;49747;51.334;6.830;2023-02-15T12:56:10;101976.44;;;14.02;45.96
63731;BME280;49747;51.334;6.830;2023-02-15T12:58:39;101979.63;;;13.94;45.65
63731;BME280;49747;51.334;6.830;2023-02-15T13:01:15;101959.41;;;13.90;45.94
63731;BME280;49747;51.334;6.830;2023-02-15T13:04:04;101972.81;;;13.49;46.27
63731;BME280;49747;51.334;6.830;2023-02-15T13:06:34;101978.66;;;13.68;47.48
63731;BME280;49747;51.334;6.830;2023-02-15T13:09:20;101976.75;;;13.70;46.60
63731;BME280;49747;51.334;6.830;2023-02-15T13:11:52;101962.81;;;13.92;46.37
63731;BME280;49747;51.334;6.830;2023-02-15T13:14:30;101960.47;;;13.88;46.79
63731;BME280;49747;51.334;6.830;2023-02-15T13:17:00;101967.94;;;13.83;46.00
63731;BME280;49747;51.334;6.830;2023-02-15T13:19:34;101953.63;;;13.84;46.01
63731;BME280;49747;51.334;6.830;2023-02-15T13:22:12;101949.16;;;13.57;46.50
63731;BME280;49747;51.334;6.830;2023-02-15T13:25:11;101947.53;;;13.82;45.78
63731;BME280;49747;51.334;6.830;2023-02-15T13:27:41;101943.41;;;13.63;46.52
63731;BME280;49747;51.334;6.830;2023-02-15T13:30:25;101943.16;;;13.53;46.36
63731;BME280;49747;51.334;6.830;2023-02-15T13:32:59;101942.22;;;13.67;45.62
63731;BME280;49747;51.334;6.830;2023-02-15T13:35:36;101933.63;;;13.76;46.15
63731;BME280;49747;51.334;6.830;2023-02-15T13:38:37;101933.22;;;13.83;45.72
63731;BME280;49747;51.334;6.830;2023-02-15T13:41:12;101927.63;;;13.73;46.31
63731;BME280;49747;51.334;6.830;2023-02-15T13:46:48;101919.78;;;13.57;45.60
63731;BME280;49747;51.334;6.830;2023-02-15T13:52:19;101918.00;;;13.70;46.83
63731;BME280;49747;51.334;6.830;2023-02-15T14:00:22;101909.59;;;13.76;45.71
63731;BME280;49747;51.334;6.830;2023-02-15T14:03:04;101917.63;;;13.76;46.12
63731;BME280;49747;51.334;6.830;2023-02-15T14:08:59;101901.16;;;13.83;45.85
63731;BME280;49747;51.334;6.830;2023-02-15T14:12:15;101910.47;;;13.90;46.40
63731;BME280;49747;51.334;6.830;2023-02-15T14:17:01;101900.88;;;14.00;45.80
63731;BME280;49747;51.334;6.830;2023-02-15T14:19:45;101894.06;;;14.09;46.10
63731;BME280;49747;51.334;6.830;2023-02-15T14:22:39;101901.31;;;14.07;46.01
63731;BME280;49747;51.334;6.830;2023-02-15T14:25:18;101902.16;;;13.94;45.73
63731;BME280;49747;51.334;6.830;2023-02-15T14:28:02;101905.59;;;13.96;46.16
63731;BME280;49747;51.334;6.830;2023-02-15T14:30:36;101899.06;;;14.00;46.58
63731;BME280;49747;51.334;6.830;2023-02-15T14:33:19;101896.41;;;14.00;46.23
63731;BME280;49747;51.334;6.830;2023-02-15T14:35:51;101889.56;;;13.96;45.27
63731;BME280;49747;51.334;6.830;2023-02-15T14:41:16;101887.41;;;13.89;46.35
63731;BME280;49747;51.334;6.830;2023-02-15T14:43:52;101890.69;;;13.79;46.67
63731;BME280;49747;51.334;6.830;2023-02-15T14:49:35;101882.59;;;13.94;46.75
63731;BME280;49747;51.334;6.830;2023-02-15T14:52:12;101885.16;;;14.08;46.80
63731;BME280;49747;51.334;6.830;2023-02-15T15:02:47;101887.28;;;13.90;46.16
63731;BME280;49747;51.334;6.830;2023-02-15T15:08:37;101883.91;;;14.01;46.45